sensor_id;sensor_type;location;lat;lon;timestamp;P1;durP1;ratioP1;P2;durP2;ratioP2
18627;SDS011;9443;50.888;10.728;2022-08-19T00:03:18;27.35;;;17.45;;
18627;SDS011;9443;50.888;10.728;2022-08-19T00:13:19;27.70;;;18.00;;
18627;SDS011;9443;50.888;10.728;2022-08-19T00:23:19;28.13;;;17.15;;
18627;SDS011;9443;50.888;10.728;2022-08-19T00:33:20;28.88;;;16.70;;
18627;SDS011;9443;50.888;10.728;2022-08-19T00:43:21;25.88;;;15.88;;
18627;SDS011;9443;50.888;10.728;2022-08-19T00:53:24;23.65;;;15.68;;
18627;SDS011;9443;50.888;10.728;2022-08-19T01:03:26;22.20;;;14.68;;
18627;SDS011;9443;50.888;10.728;2022-08-19T01:13:29;19.50;;;13.85;;
18627;SDS011;9443;50.888;10.728;2022-08-19T01:23:30;21.85;;;14.10;;
18627;SDS011;9443;50.888;10.728;2022-08-19T01:33:43;21.77;;;14.30;;
18627;SDS011;9443;50.888;10.728;2022-08-19T01:43:44;23.42;;;14.98;;
18627;SDS011;9443;50.888;10.728;2022-08-19T01:53:47;23.30;;;15.73;;
18627;SDS011;9443;50.888;10.728;2022-08-19T02:03:48;27.95;;;16.20;;
18627;SDS011;9443;50.888;10.728;2022-08-19T02:13:48;26.52;;;16.85;;
18627;SDS011;9443;50.888;10.728;2022-08-19T02:23:50;28.05;;;17.05;;
18627;SDS011;9443;50.888;10.728;2022-08-19T02:33:50;28.95;;;17.55;;
18627;SDS011;9443;50.888;10.728;2022-08-19T02:43:52;29.00;;;18.52;;
18627;SDS011;9443;50.888;10.728;2022-08-19T02:53:52;29.20;;;17.55;;
18627;SDS011;9443;50.888;10.728;2022-08-19T03:03:53;23.38;;;16.10;;
18627;SDS011;9443;50.888;10.728;2022-08-19T03:13:54;24.60;;;16.13;;
18627;SDS011;9443;50.888;10.728;2022-08-19T03:23:54;22.10;;;14.82;;
18627;SDS011;9443;50.888;10.728;2022-08-19T03:33:59;22.30;;;14.50;;
18627;SDS011;9443;50.888;10.728;2022-08-19T03:43:59;26.27;;;16.30;;
18627;SDS011;9443;50.888;10.728;2022-08-19T03:54:01;23.77;;;15.73;;
18627;SDS011;9443;50.888;10.728;2022-08-19T04:04:04;25.08;;;16.15;;
18627;SDS011;9443;50.888;10.728;2022-08-19T04:14:04;23.00;;;16.02;;
18627;SDS011;9443;50.888;10.728;2022-08-19T04:24:04;24.77;;;16.85;;
18627;SDS011;9443;50.888;10.728;2022-08-19T04:34:07;26.30;;;16.63;;
18627;SDS011;9443;50.888;10.728;2022-08-19T04:44:11;24.73;;;17.17;;
18627;SDS011;9443;50.888;10.728;2022-08-19T04:54:12;25.30;;;17.85;;
18627;SDS011;9443;50.888;10.728;2022-08-19T05:04:12;25.23;;;17.63;;
18627;SDS011;9443;50.888;10.728;2022-08-19T05:14:13;27.88;;;17.40;;
18627;SDS011;9443;50.888;10.728;2022-08-19T05:24:13;23.63;;;17.95;;
18627;SDS011;9443;50.888;10.728;2022-08-19T05:34:14;24.42;;;17.45;;
18627;SDS011;9443;50.888;10.728;2022-08-19T05:44:16;23.90;;;16.13;;
18627;SDS011;9443;50.888;10.728;2022-08-19T05:54:17;25.77;;;14.65;;
18627;SDS011;9443;50.888;10.728;2022-08-19T06:04:19;21.25;;;13.75;;
18627;SDS011;9443;50.888;10.728;2022-08-19T06:14:22;24.35;;;15.23;;
18627;SDS011;9443;50.888;10.728;2022-08-19T06:24:25;21.15;;;13.32;;
18627;SDS011;9443;50.888;10.728;2022-08-19T06:34:27;19.73;;;13.18;;
18627;SDS011;9443;50.888;10.728;2022-08-19T06:44:29;13.50;;;10.02;;
18627;SDS011;9443;50.888;10.728;2022-08-19T06:54:34;16.08;;;10.20;;
18627;SDS011;9443;50.888;10.728;2022-08-19T07:04:35;12.30;;;9.88;;
18627;SDS011;9443;50.888;10.728;2022-08-19T07:14:37;15.02;;;10.70;;
18627;SDS011;9443;50.888;10.728;2022-08-19T07:24:38;11.10;;;8.32;;
18627;SDS011;9443;50.888;10.728;2022-08-19T07:34:38;9.88;;;7.35;;
18627;SDS011;9443;50.888;10.728;2022-08-19T07:44:39;7.90;;;6.05;;
18627;SDS011;9443;50.888;10.728;2022-08-19T07:54:40;6.10;;;5.50;;
18627;SDS011;9443;50.888;10.728;2022-08-19T08:04:40;6.20;;;4.70;;
18627;SDS011;9443;50.888;10.728;2022-08-19T08:15:00;4.78;;;4.18;;
18627;SDS011;9443;50.888;10.728;2022-08-19T08:35:08;4.80;;;3.85;;
18627;SDS011;9443;50.888;10.728;2022-08-19T08:45:12;4.22;;;3.30;;
18627;SDS011;9443;50.888;10.728;2022-08-19T08:55:16;5.00;;;3.70;;
18627;SDS011;9443;50.888;10.728;2022-08-19T09:05:21;4.05;;;2.92;;
18627;SDS011;9443;50.888;10.728;2022-08-19T09:15:34;3.78;;;2.58;;
18627;SDS011;9443;50.888;10.728;2022-08-19T09:25:37;1.85;;;1.75;;
18627;SDS011;9443;50.888;10.728;2022-08-19T09:35:40;1.42;;;1.33;;
18627;SDS011;9443;50.888;10.728;2022-08-19T09:45:40;2.03;;;1.30;;
18627;SDS011;9443;50.888;10.728;2022-08-19T09:55:43;2.03;;;1.50;;
18627;SDS011;9443;50.888;10.728;2022-08-19T10:05:44;2.17;;;1.20;;
18627;SDS011;9443;50.888;10.728;2022-08-19T10:15:50;2.15;;;1.50;;
18627;SDS011;9443;50.888;10.728;2022-08-19T10:25:52;1.05;;;1.05;;
18627;SDS011;9443;50.888;10.728;2022-08-19T10:36:03;2.92;;;1.63;;
18627;SDS011;9443;50.888;10.728;2022-08-19T10:46:06;2.50;;;1.42;;
18627;SDS011;9443;50.888;10.728;2022-08-19T10:56:08;2.53;;;1.50;;
18627;SDS011;9443;50.888;10.728;2022-08-19T11:06:27;1.35;;;1.25;;
18627;SDS011;9443;50.888;10.728;2022-08-19T11:16:29;2.58;;;1.17;;
18627;SDS011;9443;50.888;10.728;2022-08-19T11:26:31;2.65;;;1.90;;
18627;SDS011;9443;50.888;10.728;2022-08-19T11:36:36;1.60;;;1.50;;
18627;SDS011;9443;50.888;10.728;2022-08-19T11:46:38;1.80;;;1.30;;
18627;SDS011;9443;50.888;10.728;2022-08-19T11:56:39;2.65;;;1.58;;
18627;SDS011;9443;50.888;10.728;2022-08-19T12:06:40;3.55;;;1.13;;
18627;SDS011;9443;50.888;10.728;2022-08-19T12:16:41;1.60;;;1.50;;
18627;SDS011;9443;50.888;10.728;2022-08-19T12:26:45;5.32;;;1.80;;
18627;SDS011;9443;50.888;10.728;2022-08-19T12:36:45;3.13;;;1.77;;
18627;SDS011;9443;50.888;10.728;2022-08-19T12:46:49;2.95;;;1.80;;
18627;SDS011;9443;50.888;10.728;2022-08-19T12:56:49;2.50;;;1.67;;
18627;SDS011;9443;50.888;10.728;2022-08-19T13:06:49;1.73;;;1.63;;
18627;SDS011;9443;50.888;10.728;2022-08-19T13:16:50;1.83;;;1.60;;
18627;SDS011;9443;50.888;10.728;2022-08-19T13:26:50;2.90;;;2.10;;
18627;SDS011;9443;50.888;10.728;2022-08-19T13:36:52;3.10;;;1.80;;
18627;SDS011;9443;50.888;10.728;2022-08-19T13:46:52;3.70;;;2.00;;
18627;SDS011;9443;50.888;10.728;2022-08-19T13:56:53;2.05;;;1.65;;
18627;SDS011;9443;50.888;10.728;2022-08-19T14:06:53;3.28;;;1.90;;
18627;SDS011;9443;50.888;10.728;2022-08-19T14:16:54;4.85;;;2.53;;
18627;SDS011;9443;50.888;10.728;2022-08-19T14:26:55;1.73;;;1.60;;
18627;SDS011;9443;50.888;10.728;2022-08-19T14:36:55;4.70;;;1.70;;
18627;SDS011;9443;50.888;10.728;2022-08-19T14:46:55;2.83;;;1.73;;
18627;SDS011;9443;50.888;10.728;2022-08-19T14:56:56;4.72;;;1.50;;
18627;SDS011;9443;50.888;10.728;2022-08-19T15:06:56;4.50;;;1.60;;
18627;SDS011;9443;50.888;10.728;2022-08-19T15:16:57;3.80;;;1.67;;
18627;SDS011;9443;50.888;10.728;2022-08-19T15:26:57;2.10;;;1.77;;
18627;SDS011;9443;50.888;10.728;2022-08-19T15:36:57;4.90;;;1.95;;
18627;SDS011;9443;50.888;10.728;2022-08-19T15:46:58;1.65;;;1.55;;
18627;SDS011;9443;50.888;10.728;2022-08-19T15:56:59;1.50;;;1.40;;
18627;SDS011;9443;50.888;10.728;2022-08-19T16:07:18;1.60;;;1.35;;
18627;SDS011;9443;50.888;10.728;2022-08-19T16:17:18;2.72;;;1.45;;
18627;SDS011;9443;50.888;10.728;2022-08-19T16:27:19;1.50;;;1.40;;
18627;SDS011;9443;50.888;10.728;2022-08-19T16:37:21;3.15;;;1.38;;
18627;SDS011;9443;50.888;10.728;2022-08-19T16:47:22;1.52;;;1.42;;
18627;SDS011;9443;50.888;10.728;2022-08-19T16:57:22;4.47;;;2.10;;
18627;SDS011;9443;50.888;10.728;2022-08-19T17:07:22;1.63;;;1.50;;
18627;SDS011;9443;50.888;10.728;2022-08-19T17:17:23;2.97;;;1.52;;
18627;SDS011;9443;50.888;10.728;2022-08-19T17:27:23;2.50;;;1.70;;
18627;SDS011;9443;50.888;10.728;2022-08-19T17:37:25;1.50;;;1.40;;
18627;SDS011;9443;50.888;10.728;2022-08-19T17:47:25;4.55;;;1.30;;
18627;SDS011;9443;50.888;10.728;2022-08-19T17:57:27;3.20;;;1.35;;
18627;SDS011;9443;50.888;10.728;2022-08-19T18:07:27;1.50;;;1.33;;
18627;SDS011;9443;50.888;10.728;2022-08-19T18:17:29;3.17;;;1.60;;
18627;SDS011;9443;50.888;10.728;2022-08-19T18:27:30;4.40;;;1.73;;
18627;SDS011;9443;50.888;10.728;2022-08-19T18:37:30;7.30;;;1.38;;
18627;SDS011;9443;50.888;10.728;2022-08-19T18:47:31;3.05;;;1.63;;
18627;SDS011;9443;50.888;10.728;2022-08-19T18:57:49;6.00;;;1.50;;
18627;SDS011;9443;50.888;10.728;2022-08-19T19:07:50;7.88;;;2.70;;
18627;SDS011;9443;50.888;10.728;2022-08-19T19:17:53;5.03;;;2.10;;
18627;SDS011;9443;50.888;10.728;2022-08-19T19:27:53;3.15;;;1.75;;
18627;SDS011;9443;50.888;10.728;2022-08-19T19:37:53;3.50;;;1.80;;
18627;SDS011;9443;50.888;10.728;2022-08-19T19:47:54;3.13;;;1.60;;
18627;SDS011;9443;50.888;10.728;2022-08-19T19:57:55;2.80;;;2.00;;
18627;SDS011;9443;50.888;10.728;2022-08-19T20:07:59;6.50;;;1.85;;
18627;SDS011;9443;50.888;10.728;2022-08-19T20:18:17;4.90;;;2.60;;
18627;SDS011;9443;50.888;10.728;2022-08-19T20:28:18;5.47;;;2.08;;
18627;SDS011;9443;50.888;10.728;2022-08-19T20:38:21;6.35;;;2.10;;
18627;SDS011;9443;50.888;10.728;2022-08-19T20:48:22;3.58;;;1.88;;
18627;SDS011;9443;50.888;10.728;2022-08-19T20:58:23;6.30;;;2.20;;
18627;SDS011;9443;50.888;10.728;2022-08-19T21:08:24;4.43;;;2.40;;
18627;SDS011;9443;50.888;10.728;2022-08-19T21:18:26;2.13;;;1.92;;
18627;SDS011;9443;50.888;10.728;2022-08-19T21:28:27;7.72;;;2.05;;
18627;SDS011;9443;50.888;10.728;2022-08-19T21:38:27;3.50;;;2.10;;
18627;SDS011;9443;50.888;10.728;2022-08-19T21:48:28;4.68;;;2.15;;
18627;SDS011;9443;50.888;10.728;2022-08-19T21:58:28;5.60;;;4.07;;
18627;SDS011;9443;50.888;10.728;2022-08-19T22:08:29;3.38;;;2.70;;
18627;SDS011;9443;50.888;10.728;2022-08-19T22:18:30;4.35;;;2.33;;
18627;SDS011;9443;50.888;10.728;2022-08-19T22:28:30;7.13;;;2.45;;
18627;SDS011;9443;50.888;10.728;2022-08-19T22:38:31;4.85;;;2.10;;
18627;SDS011;9443;50.888;10.728;2022-08-19T22:48:31;3.00;;;2.33;;
18627;SDS011;9443;50.888;10.728;2022-08-19T22:58:32;3.58;;;2.13;;
18627;SDS011;9443;50.888;10.728;2022-08-19T23:08:32;5.07;;;2.50;;
18627;SDS011;9443;50.888;10.728;2022-08-19T23:18:33;3.92;;;2.50;;
18627;SDS011;9443;50.888;10.728;2022-08-19T23:28:33;3.70;;;2.47;;
18627;SDS011;9443;50.888;10.728;2022-08-19T23:38:52;3.30;;;2.80;;
18627;SDS011;9443;50.888;10.728;2022-08-19T23:48:53;4.70;;;2.70;;
18627;SDS011;9443;50.888;10.728;2022-08-19T23:58:54;3.13;;;2.83;;
